createdAt,value
2023-04-20T00:02:23.524Z,17.73
2023-04-20T00:04:52.020Z,17.56
2023-04-20T00:07:20.078Z,17.92
2023-04-20T00:09:47.735Z,17.79
2023-04-20T00:12:15.916Z,17.72
2023-04-20T00:14:43.544Z,17.73
2023-04-20T00:17:11.603Z,17.99
2023-04-20T00:19:39.410Z,17.48
2023-04-20T00:22:07.394Z,17.56
2023-04-20T00:24:35.084Z,17.39
2023-04-20T00:27:03.317Z,17.56
2023-04-20T00:29:31.023Z,17.64
2023-04-20T00:31:59.102Z,17.55
2023-04-20T00:34:26.802Z,17.58
2023-04-20T00:36:54.797Z,17.46
2023-04-20T00:39:22.429Z,17.59
2023-04-20T00:41:50.662Z,17.63
2023-04-20T00:44:19.569Z,17.76
2023-04-20T00:46:47.596Z,17.70
2023-04-20T00:49:15.546Z,16.97
2023-04-20T00:51:43.851Z,17.20
2023-04-20T00:54:11.668Z,17.19
2023-04-20T00:56:39.714Z,17.47
2023-04-20T00:59:10.130Z,17.34
2023-04-20T01:01:38.613Z,17.48
2023-04-20T01:04:08.044Z,17.53
2023-04-20T01:06:36.384Z,17.67
2023-04-20T01:09:04.042Z,17.58
2023-04-20T01:11:32.209Z,17.51
2023-04-20T01:13:59.859Z,17.54
2023-04-20T01:16:28.086Z,17.41
2023-04-20T01:18:56.601Z,17.35
2023-04-20T01:21:25.169Z,17.42
2023-04-20T01:23:53.150Z,17.24
2023-04-20T01:26:22.529Z,17.31
2023-04-20T01:28:51.970Z,17.28
2023-04-20T01:31:20.544Z,17.27
2023-04-20T01:33:48.280Z,17.23
2023-04-20T01:36:16.360Z,17.01
2023-04-20T01:38:46.190Z,17.12
2023-04-20T01:41:14.165Z,17.04
2023-04-20T01:43:41.911Z,17.22
2023-04-20T01:46:09.995Z,17.20
2023-04-20T01:48:37.756Z,17.08
2023-04-20T01:51:06.020Z,17.36
2023-04-20T01:53:33.849Z,17.19
2023-04-20T01:56:02.061Z,17.34
2023-04-20T01:58:29.979Z,17.21
2023-04-20T02:00:58.131Z,17.12
2023-04-20T02:03:26.075Z,17.29
2023-04-20T02:05:55.503Z,17.10
2023-04-20T02:08:23.262Z,17.05
2023-04-20T02:10:51.405Z,17.09
2023-04-20T02:13:19.090Z,17.25
2023-04-20T02:15:47.122Z,17.29
2023-04-20T02:18:16.515Z,17.23
2023-04-20T02:20:45.172Z,17.06
2023-04-20T02:23:12.970Z,17.07
2023-04-20T02:25:41.219Z,16.98
2023-04-20T02:28:08.904Z,16.95
2023-04-20T02:30:39.745Z,17.03
2023-04-20T02:33:07.961Z,17.07
2023-04-20T02:35:36.388Z,17.20
2023-04-20T02:38:04.273Z,17.11
2023-04-20T02:40:32.397Z,17.07
2023-04-20T02:43:00.135Z,17.13
2023-04-20T02:45:31.075Z,17.31
2023-04-20T02:47:59.436Z,16.95
2023-04-20T02:50:31.350Z,17.26
2023-04-20T02:53:08.000Z,17.01
2023-04-20T02:55:38.125Z,17.05
2023-04-20T02:58:17.843Z,16.88
2023-04-20T03:01:04.512Z,17.02
2023-04-20T03:03:33.704Z,17.06
2023-04-20T03:06:02.116Z,16.91
2023-04-20T03:08:29.948Z,16.99
2023-04-20T03:11:02.858Z,16.86
2023-04-20T03:13:30.623Z,17.19
2023-04-20T03:16:02.171Z,17.07
2023-04-20T03:18:34.948Z,17.09
2023-04-20T03:21:03.043Z,17.01
2023-04-20T03:23:32.365Z,17.06
2023-04-20T03:26:02.402Z,17.16
2023-04-20T03:28:52.873Z,17.15
2023-04-20T03:31:25.516Z,17.24
2023-04-20T03:33:55.684Z,17.44
2023-04-20T03:36:23.698Z,17.39
2023-04-20T03:38:51.489Z,17.28
2023-04-20T03:41:19.608Z,17.30
2023-04-20T03:43:47.282Z,17.11
2023-04-20T03:46:15.755Z,17.38
2023-04-20T03:48:45.520Z,17.18
2023-04-20T03:51:13.978Z,17.34
2023-04-20T03:53:41.651Z,17.22
2023-04-20T03:56:12.638Z,17.27
2023-04-20T03:58:40.793Z,17.32
2023-04-20T04:01:19.091Z,17.33
2023-04-20T04:03:49.781Z,17.42
2023-04-20T04:06:18.553Z,17.28
2023-04-20T04:08:46.307Z,17.31
2023-04-20T04:11:14.498Z,17.46
2023-04-20T04:13:42.823Z,17.10
2023-04-20T04:16:11.119Z,17.31
2023-04-20T04:18:42.688Z,17.37
2023-04-20T04:21:11.303Z,17.31
2023-04-20T04:23:44.979Z,17.15
2023-04-20T04:26:18.522Z,17.19
2023-04-20T04:28:46.670Z,17.10
2023-04-20T04:31:19.836Z,17.34
2023-04-20T04:33:48.061Z,17.40
2023-04-20T04:36:27.209Z,17.16
2023-04-20T04:38:57.692Z,17.18
2023-04-20T04:41:26.233Z,17.38
2023-04-20T04:43:59.652Z,17.26
2023-04-20T04:46:32.666Z,17.31
2023-04-20T04:49:01.453Z,17.33
2023-04-20T04:51:29.974Z,17.21
2023-04-20T04:53:57.690Z,17.30
2023-04-20T04:56:25.979Z,17.34
2023-04-20T04:58:53.640Z,17.23
2023-04-20T05:01:21.902Z,17.54
2023-04-20T05:03:49.709Z,17.49
2023-04-20T05:06:17.899Z,17.26
2023-04-20T05:08:46.854Z,17.25
2023-04-20T05:11:14.996Z,17.29
2023-04-20T05:13:43.637Z,17.24
2023-04-20T05:16:11.709Z,17.15
2023-04-20T05:18:39.429Z,17.20
2023-04-20T05:21:07.776Z,17.18
2023-04-20T05:23:35.538Z,17.49
2023-04-20T05:26:03.586Z,17.44
2023-04-20T05:28:31.319Z,17.72
2023-04-20T05:30:59.319Z,17.48
2023-04-20T05:33:27.084Z,17.56
2023-04-20T05:35:58.045Z,17.76
2023-04-20T05:38:26.116Z,17.75
2023-04-20T05:40:54.210Z,17.91
2023-04-20T05:43:22.145Z,18.02
2023-04-20T05:45:50.421Z,18.13
2023-04-20T05:48:18.105Z,18.21
2023-04-20T05:50:46.239Z,18.05
2023-04-20T05:53:13.959Z,18.17
2023-04-20T05:55:41.948Z,18.16
2023-04-20T05:58:09.687Z,17.92
2023-04-20T06:00:37.864Z,18.22
2023-04-20T06:03:05.806Z,17.95
2023-04-20T06:05:34.488Z,17.97
2023-04-20T06:08:02.341Z,17.94
2023-04-20T06:10:32.622Z,17.99
2023-04-20T06:13:00.284Z,18.24
2023-04-20T06:15:28.374Z,18.12
2023-04-20T06:17:56.119Z,18.53
2023-04-20T06:20:24.140Z,18.42
2023-04-20T06:22:51.901Z,18.56
2023-04-20T06:25:20.322Z,18.50
2023-04-20T06:27:49.244Z,18.43
2023-04-20T06:30:18.223Z,18.19
2023-04-20T06:32:46.215Z,18.43
2023-04-20T06:35:14.349Z,18.24
2023-04-20T06:37:42.121Z,18.40
2023-04-20T06:40:10.391Z,18.28
2023-04-20T06:42:38.080Z,18.53
2023-04-20T06:45:06.637Z,18.45
2023-04-20T06:47:34.881Z,18.43
2023-04-20T06:50:05.055Z,18.40
2023-04-20T06:52:32.795Z,18.05
2023-04-20T06:55:00.765Z,18.27
2023-04-20T06:57:28.490Z,18.48
2023-04-20T06:59:56.759Z,18.31
2023-04-20T07:02:24.637Z,18.49
2023-04-20T07:04:52.947Z,18.36
2023-04-20T07:07:20.824Z,18.47
2023-04-20T07:09:48.881Z,18.69
2023-04-20T07:12:16.649Z,18.88
2023-04-20T07:14:45.703Z,18.70
2023-04-20T07:17:13.382Z,18.47
2023-04-20T07:19:41.474Z,18.81
2023-04-20T07:22:09.369Z,19.18
2023-04-20T07:24:37.420Z,18.81
2023-04-20T07:27:06.202Z,18.57
2023-04-20T07:29:34.269Z,18.79
2023-04-20T07:32:01.967Z,18.87
2023-04-20T07:34:30.172Z,18.94
2023-04-20T07:36:57.812Z,18.92
2023-04-20T07:39:28.802Z,18.76
2023-04-20T07:41:57.307Z,19.08
2023-04-20T07:44:25.773Z,18.78
2023-04-20T07:46:54.983Z,19.03
2023-04-20T07:49:23.684Z,18.93
2023-04-20T07:51:51.325Z,18.95
2023-04-20T07:54:19.266Z,19.05
2023-04-20T07:56:46.896Z,19.43
2023-04-20T07:59:15.013Z,19.63
2023-04-20T08:01:42.847Z,19.45
2023-04-20T08:04:11.058Z,19.56
2023-04-20T08:06:38.843Z,19.55
2023-04-20T08:09:06.966Z,19.35
2023-04-20T08:11:35.184Z,19.74
2023-04-20T08:14:03.510Z,19.91
2023-04-20T08:16:31.238Z,20.26
2023-04-20T08:18:59.231Z,20.23
2023-04-20T08:21:26.906Z,20.55
2023-04-20T08:23:54.828Z,20.79
2023-04-20T08:26:25.481Z,20.41
2023-04-20T08:28:53.517Z,20.54
2023-04-20T08:31:21.395Z,20.06
2023-04-20T08:33:49.385Z,20.10
2023-04-20T08:36:17.103Z,19.96
2023-04-20T08:38:45.193Z,20.35
2023-04-20T08:41:15.544Z,20.09
2023-04-20T08:43:43.916Z,19.92
2023-04-20T08:46:13.217Z,19.87
2023-04-20T08:48:42.262Z,19.88
2023-04-20T08:51:10.023Z,19.66
2023-04-20T08:53:37.984Z,19.68
2023-04-20T08:56:05.902Z,19.82
2023-04-20T08:58:33.979Z,19.71
2023-04-20T09:01:01.732Z,19.92
2023-04-20T09:03:48.060Z,20.06
2023-04-20T09:06:17.105Z,19.77
2023-04-20T09:08:46.590Z,19.99
2023-04-20T09:11:21.643Z,19.61
2023-04-20T09:14:10.420Z,19.65
2023-04-20T09:16:39.776Z,19.65
2023-04-20T09:19:09.349Z,19.43
2023-04-20T09:21:37.597Z,19.41
2023-04-20T09:24:09.482Z,19.52
2023-04-20T09:26:37.102Z,19.34
2023-04-20T09:29:16.276Z,19.40
2023-04-20T09:31:44.045Z,19.55
2023-04-20T09:34:12.350Z,20.03
2023-04-20T09:36:41.238Z,20.57
2023-04-20T09:39:14.131Z,21.16
2023-04-20T09:41:42.351Z,20.97
2023-04-20T09:44:11.364Z,20.85
2023-04-20T09:46:39.935Z,20.76
2023-04-20T09:49:09.269Z,20.42
2023-04-20T09:51:38.574Z,19.88
2023-04-20T09:54:06.903Z,20.18
2023-04-20T09:56:35.945Z,20.37
2023-04-20T09:59:04.613Z,19.95
2023-04-20T10:01:34.897Z,19.31
2023-04-20T10:04:04.361Z,19.50
2023-04-20T10:06:33.721Z,19.44
2023-04-20T10:09:02.765Z,19.47
2023-04-20T10:11:44.609Z,19.28
2023-04-20T10:14:24.955Z,19.29
2023-04-20T10:17:00.743Z,19.39
2023-04-20T10:19:41.806Z,19.43
2023-04-20T10:22:10.752Z,19.46
2023-04-20T10:24:38.721Z,19.40
2023-04-20T10:27:20.110Z,19.65
2023-04-20T10:29:48.634Z,19.52
2023-04-20T10:32:26.476Z,19.40
2023-04-20T10:35:05.319Z,19.50
2023-04-20T10:37:33.745Z,19.18
2023-04-20T10:40:07.449Z,19.07
2023-04-20T10:42:45.567Z,18.86
2023-04-20T10:45:13.776Z,18.82
2023-04-20T10:47:41.692Z,18.80
2023-04-20T10:50:12.704Z,18.72
2023-04-20T10:52:41.623Z,18.68
2023-04-20T10:55:23.647Z,18.58
2023-04-20T10:57:51.635Z,18.82
2023-04-20T11:00:20.778Z,18.66
2023-04-20T11:02:50.438Z,18.60
2023-04-20T11:05:22.563Z,18.53
2023-04-20T11:07:56.374Z,18.34
2023-04-20T11:10:26.226Z,18.49
2023-04-20T11:12:53.957Z,18.44
2023-04-20T11:15:30.952Z,18.17
2023-04-20T11:18:07.433Z,17.93
2023-04-20T11:20:36.761Z,17.81
2023-04-20T11:23:06.183Z,18.09
2023-04-20T11:25:34.454Z,18.17
2023-04-20T11:28:11.233Z,18.01
2023-04-20T11:30:41.618Z,18.04
2023-04-20T11:33:10.354Z,18.40
2023-04-20T11:35:39.378Z,18.55
2023-04-20T11:38:07.751Z,18.33
2023-04-20T11:40:36.101Z,18.20
2023-04-20T11:43:05.079Z,18.35
2023-04-20T11:45:36.888Z,18.47
2023-04-20T11:48:05.610Z,18.28
2023-04-20T11:50:33.909Z,18.55
2023-04-20T11:53:02.694Z,18.29
2023-04-20T11:55:30.750Z,18.21
2023-04-20T11:57:58.379Z,18.14
2023-04-20T12:00:26.555Z,18.14
2023-04-20T12:02:54.413Z,18.37
2023-04-20T12:05:22.648Z,18.47
2023-04-20T12:07:50.907Z,18.68
2023-04-20T12:10:18.851Z,18.48
2023-04-20T12:12:46.564Z,18.66
2023-04-20T12:15:14.560Z,18.70
2023-04-20T12:17:42.167Z,18.55
2023-04-20T12:20:12.539Z,18.49
2023-04-20T12:22:40.278Z,18.85
2023-04-20T12:25:08.553Z,18.81
2023-04-20T12:27:36.222Z,18.94
2023-04-20T12:30:04.633Z,18.73
2023-04-20T12:32:32.357Z,18.93
2023-04-20T12:35:00.626Z,19.09
2023-04-20T12:37:28.341Z,18.94
2023-04-20T12:39:57.820Z,19.35
2023-04-20T12:42:25.481Z,19.40
2023-04-20T12:44:56.895Z,19.44
2023-04-20T12:47:24.611Z,19.65
2023-04-20T12:49:52.655Z,19.52
2023-04-20T12:52:20.643Z,19.53
2023-04-20T12:54:48.999Z,19.63
2023-04-20T12:57:17.214Z,19.76
2023-04-20T12:59:45.205Z,19.94
2023-04-20T13:02:13.153Z,19.95
2023-04-20T13:04:41.607Z,19.64
2023-04-20T13:07:09.352Z,19.99
2023-04-20T13:09:37.452Z,20.11
2023-04-20T13:12:05.452Z,20.29
2023-04-20T13:14:34.609Z,20.72
2023-04-20T13:17:02.480Z,20.06
2023-04-20T13:19:31.348Z,20.59
2023-04-20T13:21:59.589Z,20.23
2023-04-20T13:24:27.659Z,20.23
2023-04-20T13:26:59.249Z,20.22
2023-04-20T13:29:27.593Z,20.04
2023-04-20T13:31:55.327Z,20.00
2023-04-20T13:34:23.757Z,19.80
2023-04-20T13:36:52.024Z,20.13
2023-04-20T13:39:21.081Z,19.83
2023-04-20T13:41:49.690Z,19.55
2023-04-20T13:44:17.998Z,19.37
2023-04-20T13:46:46.909Z,19.46
2023-04-20T13:49:17.017Z,19.62
2023-04-20T13:51:44.762Z,19.78
2023-04-20T13:54:12.921Z,19.53
2023-04-20T13:56:40.720Z,19.37
2023-04-20T13:59:08.881Z,19.85
2023-04-20T14:01:37.073Z,20.02
2023-04-20T14:04:05.561Z,19.72
2023-04-20T14:06:33.377Z,19.80
2023-04-20T14:09:01.439Z,19.76
2023-04-20T14:11:29.148Z,19.16
2023-04-20T14:13:57.515Z,19.60
2023-04-20T14:16:26.006Z,19.95
2023-04-20T14:18:54.262Z,19.97
2023-04-20T14:21:22.054Z,19.77
2023-04-20T14:23:53.824Z,19.75
2023-04-20T14:26:21.519Z,20.15
2023-04-20T14:28:49.641Z,20.18
2023-04-20T14:31:17.416Z,19.73
2023-04-20T14:33:45.565Z,19.43
2023-04-20T14:36:13.400Z,19.42
2023-04-20T14:38:41.577Z,19.48
2023-04-20T14:41:09.305Z,19.81
2023-04-20T14:43:37.908Z,19.68
2023-04-20T14:46:05.951Z,19.62
2023-04-20T14:48:35.892Z,19.98
2023-04-20T14:51:03.833Z,19.99
2023-04-20T14:53:33.130Z,20.31
2023-04-20T14:56:01.320Z,20.57
2023-04-20T14:58:29.620Z,19.97
2023-04-20T15:00:57.477Z,19.63
2023-04-20T15:03:25.844Z,19.48
2023-04-20T15:05:53.866Z,19.51
2023-04-20T15:08:23.329Z,20.08
2023-04-20T15:10:55.261Z,19.22
2023-04-20T15:13:23.951Z,19.22
2023-04-20T15:15:54.101Z,19.18
2023-04-20T15:18:23.142Z,19.53
2023-04-20T15:20:51.360Z,18.93
2023-04-20T15:23:19.936Z,19.10
2023-04-20T15:25:47.715Z,19.10
2023-04-20T15:28:15.923Z,18.93
2023-04-20T15:30:44.490Z,18.52
2023-04-20T15:33:12.647Z,18.89
2023-04-20T15:35:40.648Z,18.54
2023-04-20T15:38:09.442Z,18.76
2023-04-20T15:40:38.864Z,18.39
2023-04-20T15:43:07.186Z,18.39
2023-04-20T15:45:35.009Z,18.23
2023-04-20T15:48:03.249Z,18.17
2023-04-20T15:50:31.174Z,18.23
2023-04-20T15:52:59.284Z,18.30
2023-04-20T15:55:27.130Z,18.34
2023-04-20T15:57:58.302Z,18.12
2023-04-20T16:00:26.220Z,18.47
2023-04-20T16:02:54.418Z,18.61
2023-04-20T16:05:22.354Z,18.75
2023-04-20T16:07:50.454Z,18.52
2023-04-20T16:10:18.261Z,18.73
2023-04-20T16:12:46.720Z,18.36
2023-04-20T16:15:14.521Z,18.65
2023-04-20T16:17:42.625Z,18.11
2023-04-20T16:20:10.543Z,18.30
2023-04-20T16:22:38.601Z,18.24
2023-04-20T16:25:06.725Z,18.50
2023-04-20T16:27:34.714Z,18.27
2023-04-20T16:30:02.397Z,18.30
2023-04-20T16:32:30.942Z,18.09
2023-04-20T16:34:58.714Z,18.10
2023-04-20T16:37:26.883Z,18.10
2023-04-20T16:39:54.561Z,18.20
2023-04-20T16:42:22.635Z,17.99
2023-04-20T16:44:50.564Z,18.00
2023-04-20T16:47:18.555Z,17.75
2023-04-20T16:49:47.216Z,17.82
2023-04-20T16:52:15.283Z,17.68
2023-04-20T16:54:42.955Z,17.86
2023-04-20T16:57:11.220Z,17.81
2023-04-20T16:59:39.042Z,17.82
2023-04-20T17:02:07.848Z,17.78
2023-04-20T17:04:36.238Z,17.92
2023-04-20T17:07:04.379Z,17.96
2023-04-20T17:09:32.287Z,17.94
2023-04-20T17:12:01.564Z,17.78
2023-04-20T17:14:30.445Z,18.02
2023-04-20T17:16:58.751Z,17.78
2023-04-20T17:19:26.549Z,17.62
2023-04-20T17:21:54.630Z,17.44
2023-04-20T17:24:22.468Z,17.66
2023-04-20T17:26:50.630Z,17.62
2023-04-20T17:29:18.459Z,17.66
2023-04-20T17:31:46.939Z,17.70
2023-04-20T17:34:14.639Z,17.59
2023-04-20T17:36:42.664Z,17.55
2023-04-20T17:39:10.464Z,17.60
2023-04-20T17:41:38.523Z,17.59
2023-04-20T17:44:06.283Z,17.35
2023-04-20T17:46:34.329Z,16.88
2023-04-20T17:49:02.062Z,16.85
2023-04-20T17:51:30.141Z,16.91
2023-04-20T17:53:57.932Z,16.65
2023-04-20T17:56:26.042Z,16.62
2023-04-20T17:58:55.094Z,16.63
2023-04-20T18:01:24.199Z,16.73
2023-04-20T18:03:52.225Z,16.47
2023-04-20T18:06:20.554Z,16.70
2023-04-20T18:08:48.410Z,16.47
2023-04-20T18:11:16.952Z,16.49
2023-04-20T18:13:44.894Z,16.41
2023-04-20T18:16:12.955Z,16.50
2023-04-20T18:18:40.834Z,16.37
2023-04-20T18:21:10.006Z,16.33
2023-04-20T18:23:37.944Z,16.40
2023-04-20T18:26:06.013Z,16.39
2023-04-20T18:28:33.758Z,16.40
2023-04-20T18:31:02.802Z,16.34
2023-04-20T18:33:30.564Z,16.39
2023-04-20T18:35:58.635Z,16.71
2023-04-20T18:38:26.904Z,16.64
2023-04-20T18:40:55.033Z,16.50
2023-04-20T18:43:22.873Z,16.54
2023-04-20T18:45:50.887Z,16.62
2023-04-20T18:48:18.836Z,16.51
2023-04-20T18:50:48.077Z,16.60
2023-04-20T18:53:16.150Z,16.61
2023-04-20T18:55:44.259Z,16.63
2023-04-20T18:58:12.000Z,16.61
2023-04-20T19:00:40.935Z,16.41
2023-04-20T19:03:08.868Z,16.68
2023-04-20T19:05:38.114Z,16.50
2023-04-20T19:08:05.981Z,16.64
2023-04-20T19:10:34.055Z,16.52
2023-04-20T19:13:01.810Z,16.38
2023-04-20T19:15:29.907Z,16.38
2023-04-20T19:17:57.786Z,16.51
2023-04-20T19:20:26.387Z,16.56
2023-04-20T19:22:54.176Z,16.40
2023-04-20T19:25:22.268Z,16.40
2023-04-20T19:27:49.986Z,16.53
2023-04-20T19:30:18.016Z,16.47
2023-04-20T19:32:45.872Z,16.30
2023-04-20T19:35:14.083Z,16.56
2023-04-20T19:37:41.715Z,16.82
2023-04-20T19:40:09.742Z,16.86
2023-04-20T19:42:37.406Z,16.77
2023-04-20T19:45:05.750Z,16.62
2023-04-20T19:47:33.494Z,16.69
2023-04-20T19:50:03.605Z,16.54
2023-04-20T19:52:32.717Z,16.53
2023-04-20T19:55:01.679Z,16.54
2023-04-20T19:57:29.409Z,16.48
2023-04-20T19:59:57.588Z,16.37
2023-04-20T20:02:25.404Z,16.37
2023-04-20T20:04:54.564Z,16.57
2023-04-20T20:07:22.200Z,16.79
2023-04-20T20:09:50.172Z,16.68
2023-04-20T20:12:17.788Z,16.57
2023-04-20T20:14:45.766Z,16.58
2023-04-20T20:17:13.909Z,16.38
2023-04-20T20:19:45.135Z,16.16
2023-04-20T20:22:13.321Z,16.19
2023-04-20T20:24:42.744Z,15.84
2023-04-20T20:27:11.215Z,15.93
2023-04-20T20:29:39.490Z,15.85
2023-04-20T20:32:07.139Z,16.07
2023-04-20T20:34:35.349Z,16.20
2023-04-20T20:37:04.659Z,16.14
2023-04-20T20:39:32.654Z,15.90
2023-04-20T20:42:02.332Z,15.65
2023-04-20T20:44:33.392Z,15.56
2023-04-20T20:47:01.186Z,15.77
2023-04-20T20:49:29.255Z,15.83
2023-04-20T20:51:56.890Z,16.21
2023-04-20T20:54:24.890Z,16.02
2023-04-20T20:56:52.537Z,16.01
2023-04-20T20:59:20.694Z,15.94
2023-04-20T21:01:48.540Z,16.09
2023-04-20T21:04:16.546Z,15.97
2023-04-20T21:06:44.201Z,16.10
2023-04-20T21:09:12.484Z,15.98
2023-04-20T21:11:40.095Z,15.76
2023-04-20T21:14:08.246Z,15.60
2023-04-20T21:16:35.975Z,15.64
2023-04-20T21:19:04.179Z,15.90
2023-04-20T21:21:33.242Z,15.92
2023-04-20T21:24:01.400Z,16.17
2023-04-20T21:26:34.988Z,16.09
2023-04-20T21:29:03.463Z,16.16
2023-04-20T21:31:31.725Z,16.25
2023-04-20T21:34:00.152Z,16.25
2023-04-20T21:36:28.087Z,16.31
2023-04-20T21:38:56.097Z,16.21
2023-04-20T21:41:23.858Z,16.16
2023-04-20T21:43:52.557Z,16.18
2023-04-20T21:46:20.287Z,16.24
2023-04-20T21:48:48.267Z,16.22
2023-04-20T21:51:16.414Z,16.33
2023-04-20T21:53:44.920Z,16.33
2023-04-20T21:56:12.852Z,16.32
2023-04-20T21:58:41.057Z,16.35
2023-04-20T22:01:08.865Z,16.38
2023-04-20T22:03:38.087Z,16.47
2023-04-20T22:06:06.740Z,16.42
2023-04-20T22:08:36.636Z,16.46
2023-04-20T22:11:04.430Z,16.71
2023-04-20T22:13:32.778Z,16.72
2023-04-20T22:16:00.511Z,16.76
2023-04-20T22:18:28.576Z,16.67
2023-04-20T22:20:56.237Z,16.59
2023-04-20T22:23:24.616Z,16.88
2023-04-20T22:25:52.353Z,16.76
2023-04-20T22:28:20.393Z,16.82
2023-04-20T22:30:48.088Z,16.88
2023-04-20T22:33:16.950Z,16.92
2023-04-20T22:35:44.674Z,16.82
2023-04-20T22:38:12.781Z,16.97
2023-04-20T22:40:40.456Z,16.79
2023-04-20T22:43:08.450Z,16.78
2023-04-20T22:45:36.131Z,16.80
2023-04-20T22:48:04.338Z,16.76
2023-04-20T22:50:31.976Z,16.92
2023-04-20T22:53:00.398Z,16.89
2023-04-20T22:55:28.125Z,16.90
2023-04-20T22:57:56.310Z,16.52
2023-04-20T23:00:23.957Z,16.57
2023-04-20T23:02:53.219Z,16.78
2023-04-20T23:05:21.123Z,16.77
2023-04-20T23:07:49.503Z,16.65
2023-04-20T23:10:17.262Z,16.72
2023-04-20T23:12:47.398Z,16.80
2023-04-20T23:15:15.124Z,16.80
2023-04-20T23:17:43.348Z,16.92
2023-04-20T23:20:14.017Z,16.82
2023-04-20T23:22:42.276Z,16.51
2023-04-20T23:25:11.232Z,16.67
2023-04-20T23:27:39.336Z,16.75
2023-04-20T23:30:07.353Z,16.94
2023-04-20T23:32:35.902Z,16.88
2023-04-20T23:35:03.808Z,16.90
2023-04-20T23:37:31.820Z,17.03
2023-04-20T23:39:59.543Z,17.03
2023-04-20T23:42:27.617Z,16.86
2023-04-20T23:44:55.285Z,16.86
2023-04-20T23:47:23.437Z,16.94
2023-04-20T23:49:51.252Z,16.94
2023-04-20T23:52:19.383Z,16.79
2023-04-20T23:54:47.101Z,16.81
2023-04-20T23:57:15.131Z,16.72
2023-04-20T23:59:42.845Z,16.82
